Terminal Aerodrome Forecast
Issued by NWS Louisville, KY

Home | Current Version | Previous Version | Text Only | Print | Product List | Glossary On
Versions: 1 2 3 4 5 6 7 8 9 10 11 12 13 14 15 16 17
294
FTUS43 KLMK 251124
TAFBWG
TAF
KBWG 251124Z 2512/2612 00000KT 3SM BR SKC
      TEMPO 2512/2514 3/4SM BR SCT003
     FM251430 VRB04KT P6SM FEW060=

USA.gov is the U.S. government's official web portal to all federal, state and local government web resources and services.